Time,TemperatureF,DewpointF,PressureIn,WindDirection,WindDirectionDegrees,WindSpeedMPH,WindSpeedGustMPH,Humidity,HourlyPrecipIn,Conditions,Clouds,dailyrainin,SolarRadiationWatts/m^2,SoftwareType,DateUTC
2013-01-02 00:00:00,38.1,28.6,30.43,ESE,109,20.0,36.0,68,0.00,,,0.00,0.0,meteohub,2013-01-02 08:00:00,
2013-01-02 00:05:00,38.1,28.2,30.43,ESE,105,19.0,36.0,67,0.00,,,0.00,0.0,meteohub,2013-01-02 08:05:00,
2013-01-02 00:11:00,38.1,28.2,30.42,SE,133,21.0,41.0,67,0.00,,,0.00,0.0,meteohub,2013-01-02 08:11:00,
2013-01-02 00:16:00,38.1,28.2,30.43,East,92,26.0,41.0,67,0.00,,,0.00,0.0,meteohub,2013-01-02 08:16:00,
2013-01-02 00:21:00,38.1,28.2,30.43,SSE,157,11.0,41.0,67,0.00,,,0.00,0.0,meteohub,2013-01-02 08:21:00,
2013-01-02 00:26:00,37.9,28.8,30.42,ESE,109,32.0,37.0,69,0.00,,,0.00,0.0,meteohub,2013-01-02 08:26:00,
2013-01-02 00:31:00,37.9,28.4,30.43,SE,126,9.0,42.0,68,0.00,,,0.00,0.0,meteohub,2013-01-02 08:31:00,
2013-01-02 00:36:00,37.9,28.0,30.42,SE,124,24.0,42.0,67,0.00,,,0.00,0.0,meteohub,2013-01-02 08:36:00,
2013-01-02 00:41:00,38.1,27.9,30.42,ESE,102,21.0,42.0,66,0.00,,,0.00,0.0,meteohub,2013-01-02 08:41:00,
2013-01-02 00:46:00,38.1,28.2,30.41,South,176,14.0,34.0,67,0.00,,,0.00,0.0,meteohub,2013-01-02 08:46:00,
2013-01-02 00:51:00,37.9,28.0,30.42,ESE,107,33.0,39.0,67,0.00,,,0.00,0.0,meteohub,2013-01-02 08:51:00,
2013-01-02 00:56:00,38.3,28.2,30.41,SSE,150,16.0,40.0,67,0.00,,,0.00,0.0,meteohub,2013-01-02 08:56:00,
2013-01-02 01:01:00,38.1,27.9,30.42,SSE,159,14.0,40.0,66,0.00,,,0.00,0.0,meteohub,2013-01-02 09:01:00,
2013-01-02 01:06:00,37.9,28.0,30.42,SSE,148,16.0,40.0,67,0.00,,,0.00,0.0,meteohub,2013-01-02 09:06:00,
2013-01-02 01:11:00,38.1,27.9,30.42,ESE,112,20.0,39.0,66,0.00,,,0.00,0.0,meteohub,2013-01-02 09:11:00,
2013-01-02 01:16:00,37.9,28.0,30.42,East,95,19.0,39.0,67,0.00,,,0.00,0.0,meteohub,2013-01-02 09:16:00,
2013-01-02 01:21:00,37.6,28.4,30.42,ESE,111,33.0,39.0,69,0.00,,,0.00,0.0,meteohub,2013-01-02 09:21:00,
2013-01-02 01:26:00,37.6,28.0,30.42,SE,126,15.0,36.0,68,0.00,,,0.00,0.0,meteohub,2013-01-02 09:26:00,
2013-01-02 01:31:00,37.9,27.7,30.42,ENE,71,28.0,33.0,66,0.00,,,0.00,0.0,meteohub,2013-01-02 09:31:00,
2013-01-02 01:36:00,38.1,27.3,30.42,East,84,21.0,35.0,65,0.00,,,0.00,0.0,meteohub,2013-01-02 09:36:00,
2013-01-02 01:41:00,37.8,27.9,30.42,ESE,105,27.0,35.0,67,0.00,,,0.00,0.0,meteohub,2013-01-02 09:41:00,
2013-01-02 01:46:00,37.6,27.7,30.43,ESE,113,20.0,38.0,67,0.00,,,0.00,0.0,meteohub,2013-01-02 09:46:00,
2013-01-02 01:51:00,37.0,27.9,30.42,SE,128,26.0,38.0,69,0.00,,,0.00,0.0,meteohub,2013-01-02 09:51:00,
2013-01-02 01:56:00,37.8,28.6,30.42,ESE,119,10.0,38.0,69,0.00,,,0.00,0.0,meteohub,2013-01-02 09:56:00,
2013-01-02 02:01:00,37.9,27.7,30.42,ESE,111,28.0,40.0,66,0.00,,,0.00,0.0,meteohub,2013-01-02 10:01:00,
2013-01-02 02:06:00,37.6,28.0,30.42,SE,126,19.0,40.0,68,0.00,,,0.00,0.0,meteohub,2013-01-02 10:06:00,
2013-01-02 02:11:00,37.0,27.9,30.43,East,94,28.0,40.0,69,0.00,,,0.00,0.0,meteohub,2013-01-02 10:11:00,
2013-01-02 02:16:00,37.2,27.7,30.42,SE,138,15.0,37.0,68,0.00,,,0.00,0.0,meteohub,2013-01-02 10:16:00,
2013-01-02 02:21:00,37.2,27.7,30.42,East,86,17.0,38.0,68,0.00,,,0.00,0.0,meteohub,2013-01-02 10:21:00,
2013-01-02 02:26:00,37.0,27.9,30.42,SE,124,15.0,38.0,69,0.00,,,0.00,0.0,meteohub,2013-01-02 10:26:00,
2013-01-02 02:31:00,37.0,27.5,30.42,ESE,109,27.0,34.0,68,0.00,,,0.00,0.0,meteohub,2013-01-02 10:31:00,
2013-01-02 02:37:00,37.2,27.3,30.42,ESE,113,24.0,34.0,67,0.00,,,0.00,0.0,meteohub,2013-01-02 10:37:00,
2013-01-02 02:42:00,37.2,27.7,30.42,East,82,19.0,35.0,68,0.00,,,0.00,0.0,meteohub,2013-01-02 10:42:00,
2013-01-02 02:47:00,37.8,27.5,30.41,ESE,117,19.0,35.0,66,0.00,,,0.00,0.0,meteohub,2013-01-02 10:47:00,
2013-01-02 02:52:00,37.2,27.3,30.41,East,96,21.0,35.0,67,0.00,,,0.00,0.0,meteohub,2013-01-02 10:52:00,
2013-01-02 02:57:00,36.9,27.7,30.42,SSE,152,11.0,39.0,69,0.00,,,0.00,0.0,meteohub,2013-01-02 10:57:00,
2013-01-02 03:02:00,36.9,27.7,30.42,NE,48,17.0,39.0,69,0.00,,,0.00,0.0,meteohub,2013-01-02 11:02:00,
2013-01-02 03:07:00,37.2,27.3,30.42,ESE,111,19.0,39.0,67,0.00,,,0.00,0.0,meteohub,2013-01-02 11:07:00,
2013-01-02 03:12:00,36.9,27.7,30.40,SSW,196,7.0,32.0,69,0.00,,,0.00,0.0,meteohub,2013-01-02 11:12:00,
2013-01-02 03:17:00,36.9,27.7,30.41,NE,56,6.0,30.0,69,0.00,,,0.00,0.0,meteohub,2013-01-02 11:17:00,
2013-01-02 03:22:00,37.0,27.5,30.41,SE,142,15.0,30.0,68,0.00,,,0.00,0.0,meteohub,2013-01-02 11:22:00,
2013-01-02 03:27:00,37.2,27.0,30.40,SE,127,29.0,33.0,66,0.00,,,0.00,0.0,meteohub,2013-01-02 11:27:00,
2013-01-02 03:32:00,37.2,27.3,30.41,ESE,115,27.0,33.0,67,0.00,,,0.00,0.0,meteohub,2013-01-02 11:32:00,
2013-01-02 03:37:00,37.0,27.5,30.41,SSE,156,21.0,33.0,68,0.00,,,0.00,0.0,meteohub,2013-01-02 11:37:00,
2013-01-02 03:42:00,36.9,27.3,30.41,East,86,12.0,33.0,68,0.00,,,0.00,0.0,meteohub,2013-01-02 11:42:00,
2013-01-02 03:47:00,36.9,27.3,30.40,ESE,119,16.0,32.0,68,0.00,,,0.00,0.0,meteohub,2013-01-02 11:47:00,
2013-01-02 03:52:00,36.9,27.3,30.40,East,93,13.0,33.0,68,0.00,,,0.00,0.0,meteohub,2013-01-02 11:52:00,
2013-01-02 03:57:00,36.9,27.0,30.41,ESE,111,18.0,39.0,67,0.00,,,0.00,0.0,meteohub,2013-01-02 11:57:00,
2013-01-02 04:02:00,36.7,27.1,30.39,SE,130,13.0,39.0,68,0.00,,,0.00,0.0,meteohub,2013-01-02 12:02:00,
2013-01-02 04:07:00,36.7,27.1,30.40,ESE,119,11.0,32.0,68,0.00,,,0.00,0.0,meteohub,2013-01-02 12:07:00,
2013-01-02 04:12:00,36.7,26.8,30.40,SE,130,11.0,32.0,67,0.00,,,0.00,0.0,meteohub,2013-01-02 12:12:00,
2013-01-02 04:17:00,36.9,27.0,30.39,ENE,67,15.0,33.0,67,0.00,,,0.00,0.0,meteohub,2013-01-02 12:17:00,
2013-01-02 04:22:00,37.0,26.8,30.40,ESE,121,29.0,33.0,66,0.00,,,0.00,0.0,meteohub,2013-01-02 12:22:00,
2013-01-02 04:27:00,37.0,27.1,30.39,SE,133,22.0,36.0,67,0.00,,,0.00,0.0,meteohub,2013-01-02 12:27:00,
2013-01-02 04:32:00,36.9,27.0,30.39,ESE,120,21.0,36.0,67,0.00,,,0.00,0.0,meteohub,2013-01-02 12:32:00,
2013-01-02 04:37:00,36.5,27.0,30.40,ESE,109,18.0,34.0,68,0.00,,,0.00,0.0,meteohub,2013-01-02 12:37:00,
2013-01-02 04:42:00,36.5,27.3,30.39,SE,129,16.0,42.0,69,0.00,,,0.00,0.0,meteohub,2013-01-02 12:42:00,
2013-01-02 04:47:00,36.5,27.0,30.40,East,97,22.0,42.0,68,0.00,,,0.00,0.0,meteohub,2013-01-02 12:47:00,
2013-01-02 04:52:00,36.5,27.0,30.39,SE,128,18.0,42.0,68,0.00,,,0.00,0.0,meteohub,2013-01-02 12:52:00,
2013-01-02 04:57:00,36.1,27.0,30.39,East,98,20.0,35.0,69,0.00,,,0.00,0.0,meteohub,2013-01-02 12:57:00,
2013-01-02 05:02:00,36.3,27.1,30.39,East,94,4.0,35.0,69,0.00,,,0.00,0.0,meteohub,2013-01-02 13:02:00,
2013-01-02 05:07:00,36.5,27.0,30.39,SE,126,22.0,34.0,68,0.00,,,0.00,0.0,meteohub,2013-01-02 13:07:00,
2013-01-02 05:12:00,36.7,26.8,30.39,SE,128,7.0,34.0,67,0.00,,,0.00,0.0,meteohub,2013-01-02 13:12:00,
2013-01-02 05:17:00,36.5,27.0,30.38,ESE,102,18.0,33.0,68,0.00,,,0.00,0.0,meteohub,2013-01-02 13:17:00,
2013-01-02 05:22:00,36.0,26.8,30.38,ESE,110,17.0,33.0,69,0.00,,,0.00,0.0,meteohub,2013-01-02 13:22:00,
2013-01-02 05:27:00,36.0,26.8,30.38,East,101,24.0,33.0,69,0.00,,,0.00,0.0,meteohub,2013-01-02 13:27:00,
2013-01-02 05:32:00,36.1,27.0,30.38,East,97,24.0,33.0,69,0.00,,,0.00,0.0,meteohub,2013-01-02 13:32:00,
2013-01-02 05:37:00,36.0,26.8,30.38,SE,138,30.0,33.0,69,0.00,,,0.00,0.0,meteohub,2013-01-02 13:37:00,
2013-01-02 05:42:00,36.3,26.8,30.38,East,89,13.0,34.0,68,0.00,,,0.00,0.0,meteohub,2013-01-02 13:42:00,
2013-01-02 05:47:00,36.5,27.0,30.38,ESE,117,20.0,34.0,68,0.00,,,0.00,0.0,meteohub,2013-01-02 13:47:00,
2013-01-02 05:52:00,36.3,27.1,30.37,ENE,59,33.0,36.0,69,0.00,,,0.00,0.0,meteohub,2013-01-02 13:52:00,
2013-01-02 05:57:00,36.3,26.8,30.37,ESE,116,25.0,41.0,68,0.00,,,0.00,0.0,meteohub,2013-01-02 13:57:00,
2013-01-02 06:02:00,36.0,26.8,30.37,ESE,117,12.0,41.0,69,0.00,,,0.00,0.0,meteohub,2013-01-02 14:02:00,
2013-01-02 06:07:00,36.1,27.0,30.37,ESE,115,26.0,41.0,69,0.00,,,0.00,0.0,meteohub,2013-01-02 14:07:00,
2013-01-02 06:12:00,36.0,26.8,30.37,ESE,121,28.0,34.0,69,0.00,,,0.00,0.0,meteohub,2013-01-02 14:12:00,
2013-01-02 06:17:00,36.0,26.8,30.36,ESE,113,22.0,34.0,69,0.00,,,0.00,0.0,meteohub,2013-01-02 14:17:00,
2013-01-02 06:22:00,36.3,26.8,30.36,ESE,123,20.0,34.0,68,0.00,,,0.00,0.0,meteohub,2013-01-02 14:22:00,
2013-01-02 06:27:00,36.5,27.0,30.36,ESE,113,22.0,34.0,68,0.00,,,0.00,0.0,meteohub,2013-01-02 14:27:00,
2013-01-02 06:32:00,36.1,27.0,30.36,ESE,118,15.0,33.0,69,0.00,,,0.00,0.0,meteohub,2013-01-02 14:32:00,
2013-01-02 06:37:00,36.1,27.0,30.36,SE,146,22.0,32.0,69,0.00,,,0.00,0.0,meteohub,2013-01-02 14:37:00,
2013-01-02 06:42:00,36.5,26.6,30.36,East,96,11.0,35.0,67,0.00,,,0.00,0.0,meteohub,2013-01-02 14:42:00,
2013-01-02 06:47:00,36.3,26.8,30.36,East,101,25.0,35.0,68,0.00,,,0.00,0.0,meteohub,2013-01-02 14:47:00,
2013-01-02 06:52:00,36.1,26.6,30.36,ESE,120,25.0,35.0,68,0.00,,,0.00,0.0,meteohub,2013-01-02 14:52:00,
2013-01-02 06:57:00,36.1,26.6,30.37,SE,132,13.0,34.0,68,0.00,,,0.00,0.0,meteohub,2013-01-02 14:57:00,
2013-01-02 07:02:00,36.1,26.6,30.35,East,80,16.0,35.0,68,0.00,,,0.00,0.0,meteohub,2013-01-02 15:02:00,
2013-01-02 07:07:00,36.1,27.0,30.37,East,82,20.0,40.0,69,0.00,,,0.00,0.0,meteohub,2013-01-02 15:07:00,
2013-01-02 07:12:00,36.3,26.8,30.35,East,94,32.0,40.0,68,0.00,,,0.00,0.0,meteohub,2013-01-02 15:12:00,
2013-01-02 07:17:00,36.1,26.6,30.36,ESE,121,27.0,40.0,68,0.00,,,0.00,0.0,meteohub,2013-01-02 15:17:00,
2013-01-02 07:22:00,36.5,26.6,30.35,ESE,110,28.0,36.0,67,0.00,,,0.00,0.0,meteohub,2013-01-02 15:22:00,
2013-01-02 07:27:00,36.1,26.6,30.35,East,98,33.0,37.0,68,0.00,,,0.00,0.0,meteohub,2013-01-02 15:27:00,
2013-01-02 07:32:00,36.1,26.6,30.35,South,176,5.0,37.0,68,0.00,,,0.00,0.0,meteohub,2013-01-02 15:32:00,
2013-01-02 07:37:00,36.1,26.6,30.36,SE,134,17.0,37.0,68,0.00,,,0.00,0.0,meteohub,2013-01-02 15:37:00,
2013-01-02 07:42:00,36.5,26.6,30.36,ESE,107,27.0,37.0,67,0.00,,,0.00,0.0,meteohub,2013-01-02 15:42:00,
2013-01-02 07:47:00,36.3,26.8,30.36,ESE,123,19.0,37.0,68,0.00,,,0.00,0.0,meteohub,2013-01-02 15:47:00,
2013-01-02 07:52:00,36.5,26.6,30.35,ESE,111,31.0,36.0,67,0.00,,,0.00,0.0,meteohub,2013-01-02 15:52:00,
2013-01-02 07:57:00,36.1,26.6,30.35,ESE,123,7.0,38.0,68,0.00,,,0.00,0.0,meteohub,2013-01-02 15:57:00,
2013-01-02 08:02:00,36.0,26.4,30.36,East,96,21.0,38.0,68,0.00,,,0.00,0.0,meteohub,2013-01-02 16:02:00,
2013-01-02 08:07:00,36.1,26.6,30.35,SE,142,17.0,38.0,68,0.00,,,0.00,7.0,meteohub,2013-01-02 16:07:00,
2013-01-02 08:12:00,36.0,26.4,30.36,SE,141,11.0,30.0,68,0.00,,,0.00,11.0,meteohub,2013-01-02 16:12:00,
2013-01-02 08:17:00,35.8,26.6,30.37,ESE,119,25.0,31.0,69,0.00,,,0.00,12.0,meteohub,2013-01-02 16:17:00,
2013-01-02 08:22:00,36.0,26.4,30.37,SE,131,16.0,36.0,68,0.00,,,0.00,16.0,meteohub,2013-01-02 16:22:00,
2013-01-02 08:27:00,36.0,26.4,30.36,ESE,107,20.0,36.0,68,0.00,,,0.00,19.0,meteohub,2013-01-02 16:27:00,
2013-01-02 08:32:00,36.0,26.4,30.37,SE,131,10.0,36.0,68,0.00,,,0.00,23.0,meteohub,2013-01-02 16:32:00,
2013-01-02 08:37:00,36.0,26.4,30.37,ENE,74,17.0,35.0,68,0.00,,,0.00,26.0,meteohub,2013-01-02 16:37:00,
2013-01-02 08:42:00,36.0,26.4,30.37,SE,142,20.0,34.0,68,0.00,,,0.00,30.0,meteohub,2013-01-02 16:42:00,
2013-01-02 08:47:00,36.0,26.4,30.37,SE,127,24.0,33.0,68,0.00,,,0.00,33.0,meteohub,2013-01-02 16:47:00,
2013-01-02 08:52:00,36.3,26.1,30.37,East,95,20.0,33.0,66,0.00,,,0.00,37.0,meteohub,2013-01-02 16:52:00,
2013-01-02 08:57:00,36.3,26.4,30.37,ESE,108,21.0,30.0,67,0.00,,,0.00,40.0,meteohub,2013-01-02 16:57:00,
2013-01-02 09:02:00,36.3,26.4,30.38,SSE,150,6.0,30.0,67,0.00,,,0.00,44.0,meteohub,2013-01-02 17:02:00,
2013-01-02 09:07:00,36.3,26.1,30.37,East,84,16.0,30.0,66,0.00,,,0.00,46.0,meteohub,2013-01-02 17:07:00,
2013-01-02 09:12:00,36.1,26.2,30.37,SE,134,9.0,31.0,67,0.00,,,0.00,49.0,meteohub,2013-01-02 17:12:00,
2013-01-02 09:17:00,36.0,26.4,30.37,ESE,119,18.0,31.0,68,0.00,,,0.00,49.0,meteohub,2013-01-02 17:17:00,
2013-01-02 09:23:00,36.0,26.4,30.37,ESE,115,20.0,31.0,68,0.00,,,0.00,51.0,meteohub,2013-01-02 17:23:00,
2013-01-02 09:28:00,36.1,26.6,30.38,South,180,8.0,29.0,68,0.00,,,0.00,51.0,meteohub,2013-01-02 17:28:00,
2013-01-02 09:33:00,36.3,26.4,30.38,South,180,7.0,29.0,67,0.00,,,0.00,51.0,meteohub,2013-01-02 17:33:00,
2013-01-02 09:38:00,36.7,26.4,30.37,SE,131,12.0,30.0,66,0.00,,,0.00,49.0,meteohub,2013-01-02 17:38:00,
2013-01-02 09:43:00,36.7,26.8,30.37,ESE,110,14.0,30.0,67,0.00,,,0.00,49.0,meteohub,2013-01-02 17:43:00,
2013-01-02 09:48:00,36.7,26.4,30.38,ESE,113,13.0,30.0,66,0.00,,,0.00,46.0,meteohub,2013-01-02 17:48:00,
2013-01-02 09:53:00,36.5,26.6,30.38,SSE,159,12.0,27.0,67,0.00,,,0.00,44.0,meteohub,2013-01-02 17:53:00,
2013-01-02 09:58:00,36.7,26.4,30.38,SSW,213,8.0,25.0,66,0.00,,,0.00,42.0,meteohub,2013-01-02 17:58:00,
2013-01-02 10:03:00,36.9,26.6,30.38,ENE,59,6.0,24.0,66,0.00,,,0.00,40.0,meteohub,2013-01-02 18:03:00,
2013-01-02 10:08:00,36.9,27.0,30.38,ESE,107,20.0,32.0,67,0.00,,,0.00,39.0,meteohub,2013-01-02 18:08:00,
2013-01-02 10:13:00,37.0,26.4,30.38,SE,136,14.0,32.0,65,0.00,,,0.00,37.0,meteohub,2013-01-02 18:13:00,
2013-01-02 10:18:00,37.6,26.6,30.38,West,265,5.0,32.0,64,0.00,,,0.00,37.0,meteohub,2013-01-02 18:18:00,
2013-01-02 10:23:00,37.6,26.6,30.38,ESE,121,16.0,29.0,64,0.00,,,0.00,37.0,meteohub,2013-01-02 18:23:00,
2013-01-02 10:28:00,37.8,26.6,30.38,ESE,119,5.0,29.0,64,0.00,,,0.00,37.0,meteohub,2013-01-02 18:28:00,
2013-01-02 10:33:00,37.6,26.6,30.38,SSE,157,9.0,33.0,64,0.00,,,0.00,37.0,meteohub,2013-01-02 18:33:00,
2013-01-02 10:38:00,37.8,26.6,30.38,East,101,17.0,33.0,64,0.00,,,0.00,35.0,meteohub,2013-01-02 18:38:00,
2013-01-02 10:43:00,37.9,26.8,30.37,East,86,19.0,30.0,64,0.00,,,0.00,33.0,meteohub,2013-01-02 18:43:00,
2013-01-02 10:48:00,37.8,26.6,30.36,SE,140,14.0,30.0,64,0.00,,,0.00,33.0,meteohub,2013-01-02 18:48:00,
2013-01-02 10:53:00,37.9,26.8,30.37,SE,140,11.0,30.0,64,0.00,,,0.00,35.0,meteohub,2013-01-02 18:53:00,
2013-01-02 10:58:00,37.9,26.8,30.36,SSE,148,26.0,31.0,64,0.00,,,0.00,35.0,meteohub,2013-01-02 18:58:00,
2013-01-02 11:03:00,37.9,26.8,30.36,SSE,148,18.0,31.0,64,0.00,,,0.00,44.0,meteohub,2013-01-02 19:03:00,
2013-01-02 11:08:00,37.9,26.8,30.36,ESE,119,27.0,39.0,64,0.00,,,0.00,232.0,meteohub,2013-01-02 19:08:00,
2013-01-02 11:13:00,38.1,27.0,30.36,ESE,123,19.0,39.0,64,0.00,,,0.00,279.0,meteohub,2013-01-02 19:13:00,
2013-01-02 11:18:00,38.8,27.3,30.36,ESE,117,19.0,39.0,63,0.00,,,0.00,287.0,meteohub,2013-01-02 19:18:00,
2013-01-02 11:23:00,38.8,27.3,30.36,ESE,114,21.0,33.0,63,0.00,,,0.00,288.0,meteohub,2013-01-02 19:23:00,
2013-01-02 11:28:00,38.8,27.3,30.35,ESE,120,21.0,33.0,63,0.00,,,0.00,292.0,meteohub,2013-01-02 19:28:00,
2013-01-02 11:34:00,38.8,27.3,30.37,NE,46,11.0,31.0,63,0.00,,,0.00,292.0,meteohub,2013-01-02 19:34:00,
2013-01-02 11:39:00,38.8,27.7,30.35,East,98,21.0,34.0,64,0.00,,,0.00,294.0,meteohub,2013-01-02 19:39:00,
2013-01-02 11:44:00,39.2,27.7,30.35,East,100,25.0,34.0,63,0.00,,,0.00,287.0,meteohub,2013-01-02 19:44:00,
2013-01-02 11:49:00,39.6,27.7,30.35,SSE,151,14.0,34.0,62,0.00,,,0.00,97.0,meteohub,2013-01-02 19:49:00,
2013-01-02 11:54:00,39.6,27.1,30.34,East,92,28.0,34.0,61,0.00,,,0.00,35.0,meteohub,2013-01-02 19:54:00,
2013-01-02 11:59:00,39.7,27.3,30.35,ESE,113,25.0,34.0,61,0.00,,,0.00,35.0,meteohub,2013-01-02 19:59:00,
2013-01-02 12:04:00,39.6,28.0,30.34,SE,128,19.0,34.0,63,0.00,,,0.00,33.0,meteohub,2013-01-02 20:04:00,
2013-01-02 12:09:00,39.6,28.0,30.34,ENE,78,18.0,32.0,63,0.00,,,0.00,33.0,meteohub,2013-01-02 20:09:00,
2013-01-02 12:14:00,39.6,28.0,30.33,SE,129,25.0,32.0,63,0.00,,,0.00,33.0,meteohub,2013-01-02 20:14:00,
2013-01-02 12:19:00,39.7,27.9,30.33,ESE,121,14.0,33.0,62,0.00,,,0.00,33.0,meteohub,2013-01-02 20:19:00,
2013-01-02 12:24:00,39.7,27.9,30.33,ESE,112,18.0,35.0,62,0.00,,,0.00,33.0,meteohub,2013-01-02 20:24:00,
2013-01-02 12:29:00,39.7,27.9,30.32,ESE,112,22.0,35.0,62,0.00,,,0.00,33.0,meteohub,2013-01-02 20:29:00,
2013-01-02 12:34:00,39.9,28.4,30.33,ESE,121,22.0,33.0,63,0.00,,,0.00,35.0,meteohub,2013-01-02 20:34:00,
2013-01-02 12:39:00,40.1,28.0,30.33,SE,135,15.0,33.0,62,0.00,,,0.00,35.0,meteohub,2013-01-02 20:39:00,
2013-01-02 12:44:00,40.3,27.9,30.33,SE,128,18.0,33.0,61,0.00,,,0.00,35.0,meteohub,2013-01-02 20:44:00,
2013-01-02 12:49:00,40.5,28.0,30.33,ESE,117,30.0,31.0,61,0.00,,,0.00,35.0,meteohub,2013-01-02 20:49:00,
2013-01-02 12:54:00,40.5,28.0,30.33,East,95,17.0,31.0,61,0.00,,,0.00,35.0,meteohub,2013-01-02 20:54:00,
2013-01-02 12:59:00,40.5,28.4,30.33,ESE,114,12.0,31.0,62,0.00,,,0.00,35.0,meteohub,2013-01-02 20:59:00,
2013-01-02 13:04:00,40.6,28.2,30.33,ESE,116,14.0,30.0,61,0.00,,,0.00,35.0,meteohub,2013-01-02 21:04:00,
2013-01-02 13:09:00,40.6,28.2,30.33,ESE,121,27.0,27.0,61,0.00,,,0.00,37.0,meteohub,2013-01-02 21:09:00,
2013-01-02 13:14:00,40.8,28.4,30.32,East,100,18.0,31.0,61,0.00,,,0.00,37.0,meteohub,2013-01-02 21:14:00,
2013-01-02 13:19:00,40.8,28.8,30.33,SE,137,13.0,31.0,62,0.00,,,0.00,37.0,meteohub,2013-01-02 21:19:00,
2013-01-02 13:24:00,40.8,28.4,30.32,East,96,19.0,29.0,61,0.00,,,0.00,37.0,meteohub,2013-01-02 21:24:00,
2013-01-02 13:29:00,40.8,28.4,30.32,East,101,14.0,29.0,61,0.00,,,0.00,37.0,meteohub,2013-01-02 21:29:00,
2013-01-02 13:34:00,41.2,27.9,30.32,ESE,111,17.0,30.0,59,0.00,,,0.00,37.0,meteohub,2013-01-02 21:34:00,
2013-01-02 13:39:00,41.5,28.2,30.31,SE,130,18.0,30.0,59,0.00,,,0.00,37.0,meteohub,2013-01-02 21:39:00,
2013-01-02 13:44:00,41.7,28.4,30.31,ESE,114,20.0,30.0,59,0.00,,,0.00,37.0,meteohub,2013-01-02 21:44:00,
2013-01-02 13:49:00,41.7,28.9,30.31,SE,128,26.0,30.0,60,0.00,,,0.00,37.0,meteohub,2013-01-02 21:49:00,
2013-01-02 13:54:00,41.9,28.9,30.31,SE,125,15.0,29.0,60,0.00,,,0.00,37.0,meteohub,2013-01-02 21:54:00,
2013-01-02 14:00:00,41.7,28.4,30.30,East,99,16.0,31.0,59,0.00,,,0.00,39.0,meteohub,2013-01-02 22:00:00,
2013-01-02 14:05:00,42.1,28.8,30.31,ESE,116,14.0,31.0,59,0.00,,,0.00,39.0,meteohub,2013-01-02 22:05:00,
2013-01-02 14:10:00,42.1,28.8,30.30,ESE,111,17.0,31.0,59,0.00,,,0.00,84.0,meteohub,2013-01-02 22:10:00,
2013-01-02 14:15:00,42.3,28.6,30.31,East,98,6.0,30.0,58,0.00,,,0.00,216.0,meteohub,2013-01-02 22:15:00,
2013-01-02 14:20:00,42.4,28.8,30.30,SE,130,12.0,30.0,58,0.00,,,0.00,202.0,meteohub,2013-01-02 22:20:00,
2013-01-02 14:25:00,42.1,29.1,30.30,ESE,116,16.0,29.0,60,0.00,,,0.00,202.0,meteohub,2013-01-02 22:25:00,
2013-01-02 14:30:00,41.7,28.4,30.30,ESE,103,25.0,29.0,59,0.00,,,0.00,192.0,meteohub,2013-01-02 22:30:00,
2013-01-02 14:35:00,41.9,28.9,30.30,South,175,11.0,33.0,60,0.00,,,0.00,153.0,meteohub,2013-01-02 22:35:00,
2013-01-02 14:40:00,42.1,28.8,30.30,ESE,118,16.0,35.0,59,0.00,,,0.00,165.0,meteohub,2013-01-02 22:40:00,
2013-01-02 14:45:00,42.6,28.4,30.30,East,92,18.0,36.0,57,0.00,,,0.00,162.0,meteohub,2013-01-02 22:45:00,
2013-01-02 14:50:00,42.6,28.9,30.29,ENE,78,19.0,36.0,58,0.00,,,0.00,156.0,meteohub,2013-01-02 22:50:00,
2013-01-02 14:55:00,42.4,28.8,30.30,ESE,120,15.0,36.0,58,0.00,,,0.00,151.0,meteohub,2013-01-02 22:55:00,
2013-01-02 15:00:00,42.3,28.9,30.30,SE,142,24.0,33.0,59,0.00,,,0.00,141.0,meteohub,2013-01-02 23:00:00,
2013-01-02 15:05:00,42.1,28.8,30.29,SE,131,20.0,33.0,59,0.00,,,0.00,127.0,meteohub,2013-01-02 23:05:00,
2013-01-02 15:10:00,42.3,28.9,30.29,East,83,23.0,33.0,59,0.00,,,0.00,118.0,meteohub,2013-01-02 23:10:00,
2013-01-02 15:15:00,42.3,28.9,30.29,ESE,117,21.0,38.0,59,0.00,,,0.00,109.0,meteohub,2013-01-02 23:15:00,
2013-01-02 15:20:00,42.3,28.6,30.29,SE,139,7.0,38.0,58,0.00,,,0.00,93.0,meteohub,2013-01-02 23:20:00,
2013-01-02 15:25:00,42.4,28.8,30.29,ESE,108,22.0,38.0,58,0.00,,,0.00,67.0,meteohub,2013-01-02 23:25:00,
2013-01-02 15:30:00,42.3,28.6,30.29,ESE,109,20.0,34.0,58,0.00,,,0.00,54.0,meteohub,2013-01-02 23:30:00,
2013-01-02 15:35:00,42.3,28.9,30.29,SE,136,11.0,34.0,59,0.00,,,0.00,39.0,meteohub,2013-01-02 23:35:00,
2013-01-02 15:40:00,42.3,28.9,30.29,ESE,119,19.0,33.0,59,0.00,,,0.00,33.0,meteohub,2013-01-02 23:40:00,
2013-01-02 15:45:00,42.3,28.9,30.30,SE,144,9.0,33.0,59,0.00,,,0.00,23.0,meteohub,2013-01-02 23:45:00,
2013-01-02 15:50:00,42.3,28.9,30.29,NE,55,18.0,31.0,59,0.00,,,0.00,21.0,meteohub,2013-01-02 23:50:00,
2013-01-02 15:55:00,42.3,28.6,30.29,ESE,115,13.0,32.0,58,0.00,,,0.00,19.0,meteohub,2013-01-02 23:55:00,
2013-01-02 16:00:00,42.1,29.1,30.29,ESE,114,21.0,32.0,60,0.00,,,0.00,16.0,meteohub,2013-01-03 00:00:00,
2013-01-02 16:05:00,41.9,28.9,30.29,South,171,6.0,32.0,60,0.00,,,0.00,12.0,meteohub,2013-01-03 00:05:00,
2013-01-02 16:10:00,41.7,28.4,30.29,SE,140,7.0,30.0,59,0.00,,,0.00,9.0,meteohub,2013-01-03 00:10:00,
2013-01-02 16:15:00,41.9,28.9,30.30,South,178,7.0,30.0,60,0.00,,,0.00,5.0,meteohub,2013-01-03 00:15:00,
2013-01-02 16:20:00,41.7,28.4,30.29,ESE,103,13.0,25.0,59,0.00,,,0.00,0.0,meteohub,2013-01-03 00:20:00,
2013-01-02 16:26:00,41.5,28.8,30.30,SE,139,7.0,26.0,60,0.00,,,0.00,0.0,meteohub,2013-01-03 00:26:00,
2013-01-02 16:31:00,41.5,29.1,30.30,ENE,59,5.0,26.0,61,0.00,,,0.00,0.0,meteohub,2013-01-03 00:31:00,
2013-01-02 16:36:00,41.5,29.1,30.29,SE,127,13.0,26.0,61,0.00,,,0.00,0.0,meteohub,2013-01-03 00:36:00,
2013-01-02 16:41:00,41.5,28.8,30.29,East,93,7.0,26.0,60,0.00,,,0.00,0.0,meteohub,2013-01-03 00:41:00,
2013-01-02 16:46:00,41.5,28.8,30.30,ESE,114,22.0,26.0,60,0.00,,,0.00,0.0,meteohub,2013-01-03 00:46:00,
2013-01-02 16:51:00,41.4,28.6,30.30,ESE,123,19.0,26.0,60,0.00,,,0.00,0.0,meteohub,2013-01-03 00:51:00,
2013-01-02 16:56:00,41.4,28.9,30.30,ESE,105,4.0,29.0,61,0.00,,,0.00,0.0,meteohub,2013-01-03 00:56:00,
2013-01-02 17:01:00,40.8,28.4,30.30,East,98,14.0,29.0,61,0.00,,,0.00,0.0,meteohub,2013-01-03 01:01:00,
2013-01-02 17:07:00,40.8,28.4,30.30,SE,138,19.0,29.0,61,0.00,,,0.00,0.0,meteohub,2013-01-03 01:07:00,
2013-01-02 17:12:00,41.2,28.4,30.29,ESE,116,15.0,25.0,60,0.00,,,0.00,0.0,meteohub,2013-01-03 01:12:00,
2013-01-02 17:17:00,41.2,28.8,30.29,SSE,167,5.0,28.0,61,0.00,,,0.00,0.0,meteohub,2013-01-03 01:17:00,
2013-01-02 17:22:00,41.2,28.8,30.30,ESE,111,9.0,28.0,61,0.00,,,0.00,0.0,meteohub,2013-01-03 01:22:00,
2013-01-02 17:27:00,40.8,28.8,30.30,NE,50,9.0,22.0,62,0.00,,,0.00,0.0,meteohub,2013-01-03 01:27:00,
2013-01-02 17:32:00,40.5,28.9,30.30,ESE,122,2.0,22.0,63,0.00,,,0.00,0.0,meteohub,2013-01-03 01:32:00,
2013-01-02 17:37:00,40.3,28.8,30.30,ESE,111,7.0,22.0,63,0.00,,,0.00,0.0,meteohub,2013-01-03 01:37:00,
2013-01-02 17:42:00,40.3,28.8,30.30,ESE,109,14.0,20.0,63,0.00,,,0.00,0.0,meteohub,2013-01-03 01:42:00,
2013-01-02 17:47:00,40.5,28.4,30.30,ENE,71,3.0,20.0,62,0.00,,,0.00,0.0,meteohub,2013-01-03 01:47:00,
2013-01-02 17:52:00,40.5,28.4,30.30,ESE,108,5.0,18.0,62,0.00,,,0.00,0.0,meteohub,2013-01-03 01:52:00,
2013-01-02 17:57:00,40.3,28.2,30.30,ESE,123,9.0,18.0,62,0.00,,,0.00,0.0,meteohub,2013-01-03 01:57:00,
2013-01-02 18:02:00,40.6,28.6,30.29,SE,132,22.0,25.0,62,0.00,,,0.00,0.0,meteohub,2013-01-03 02:02:00,
2013-01-02 18:07:00,40.6,28.2,30.29,ESE,103,16.0,25.0,61,0.00,,,0.00,0.0,meteohub,2013-01-03 02:07:00,
2013-01-02 18:12:00,40.6,27.9,30.29,East,92,12.0,26.0,60,0.00,,,0.00,0.0,meteohub,2013-01-03 02:12:00,
2013-01-02 18:17:00,40.8,28.0,30.29,East,94,17.0,28.0,60,0.00,,,0.00,0.0,meteohub,2013-01-03 02:17:00,
2013-01-02 18:22:00,40.8,28.0,30.29,ESE,111,11.0,28.0,60,0.00,,,0.00,0.0,meteohub,2013-01-03 02:22:00,
2013-01-02 18:27:00,40.6,28.2,30.29,SE,126,13.0,33.0,61,0.00,,,0.00,0.0,meteohub,2013-01-03 02:27:00,
2013-01-02 18:32:00,40.5,28.0,30.29,SE,134,16.0,33.0,61,0.00,,,0.00,0.0,meteohub,2013-01-03 02:32:00,
2013-01-02 18:37:00,40.6,28.2,30.29,NE,47,3.0,33.0,61,0.00,,,0.00,0.0,meteohub,2013-01-03 02:37:00,
2013-01-02 18:42:00,40.3,28.2,30.29,East,83,3.0,31.0,62,0.00,,,0.00,0.0,meteohub,2013-01-03 02:42:00,
2013-01-02 18:47:00,40.1,28.6,30.29,WNW,296,5.0,31.0,63,0.00,,,0.00,0.0,meteohub,2013-01-03 02:47:00,
2013-01-02 18:52:00,39.6,28.4,30.29,NNE,32,7.0,31.0,64,0.00,,,0.00,0.0,meteohub,2013-01-03 02:52:00,
2013-01-02 18:57:00,39.9,28.0,30.29,SE,134,14.0,20.0,62,0.00,,,0.00,0.0,meteohub,2013-01-03 02:57:00,
2013-01-02 19:02:00,40.3,27.9,30.29,ESE,105,21.0,31.0,61,0.00,,,0.00,0.0,meteohub,2013-01-03 03:02:00,
2013-01-02 19:07:00,40.3,28.2,30.29,ESE,118,4.0,31.0,62,0.00,,,0.00,0.0,meteohub,2013-01-03 03:07:00,
2013-01-02 19:12:00,39.6,28.0,30.29,SSE,159,7.0,31.0,63,0.00,,,0.00,0.0,meteohub,2013-01-03 03:12:00,
2013-01-02 19:17:00,39.6,28.0,30.29,East,88,2.0,29.0,63,0.00,,,0.00,0.0,meteohub,2013-01-03 03:17:00,
2013-01-02 19:22:00,39.9,28.0,30.28,ESE,123,7.0,24.0,62,0.00,,,0.00,0.0,meteohub,2013-01-03 03:22:00,
2013-01-02 19:27:00,40.3,27.5,30.28,SE,124,11.0,27.0,60,0.00,,,0.00,0.0,meteohub,2013-01-03 03:27:00,
2013-01-02 19:32:00,40.5,27.7,30.28,ESE,121,22.0,34.0,60,0.00,,,0.00,0.0,meteohub,2013-01-03 03:32:00,
2013-01-02 19:37:00,40.3,27.9,30.28,ESE,111,10.0,34.0,61,0.00,,,0.00,0.0,meteohub,2013-01-03 03:37:00,
2013-01-02 19:44:00,40.3,27.9,30.28,East,92,11.0,34.0,61,0.00,,,0.00,0.0,meteohub,2013-01-03 03:44:00,
2013-01-02 19:49:00,40.3,27.9,30.28,ESE,111,16.0,25.0,61,0.00,,,0.00,0.0,meteohub,2013-01-03 03:49:00,
2013-01-02 19:54:00,40.1,28.6,30.28,East,83,12.0,29.0,63,0.00,,,0.00,0.0,meteohub,2013-01-03 03:54:00,
2013-01-02 19:59:00,39.9,27.5,30.27,North,351,9.0,29.0,61,0.00,,,0.00,0.0,meteohub,2013-01-03 03:59:00,
2013-01-02 20:04:00,40.3,27.5,30.28,NE,53,3.0,29.0,60,0.00,,,0.00,0.0,meteohub,2013-01-03 04:04:00,
2013-01-02 20:09:00,40.5,27.3,30.27,East,94,12.0,29.0,59,0.00,,,0.00,0.0,meteohub,2013-01-03 04:09:00,
2013-01-02 20:14:00,40.3,27.9,30.28,SSE,148,6.0,35.0,61,0.00,,,0.00,0.0,meteohub,2013-01-03 04:14:00,
2013-01-02 20:19:00,39.9,27.5,30.27,ESE,109,14.0,35.0,61,0.00,,,0.00,0.0,meteohub,2013-01-03 04:19:00,
2013-01-02 20:24:00,39.7,27.3,30.27,East,97,24.0,37.0,61,0.00,,,0.00,0.0,meteohub,2013-01-03 04:24:00,
2013-01-02 20:29:00,40.1,27.3,30.27,ESE,111,18.0,37.0,60,0.00,,,0.00,0.0,meteohub,2013-01-03 04:29:00,
2013-01-02 20:34:00,40.1,27.7,30.27,ESE,118,17.0,37.0,61,0.00,,,0.00,0.0,meteohub,2013-01-03 04:34:00,
2013-01-02 20:40:00,39.7,27.3,30.27,SSE,168,4.0,33.0,61,0.00,,,0.00,0.0,meteohub,2013-01-03 04:40:00,
2013-01-02 20:45:00,39.9,27.5,30.28,South,171,6.0,29.0,61,0.00,,,0.00,0.0,meteohub,2013-01-03 04:45:00,
2013-01-02 20:50:00,40.1,27.7,30.27,SE,124,13.0,30.0,61,0.00,,,0.00,0.0,meteohub,2013-01-03 04:50:00,
2013-01-02 20:55:00,40.3,27.9,30.27,ESE,111,22.0,40.0,61,0.00,,,0.00,0.0,meteohub,2013-01-03 04:55:00,
2013-01-02 21:00:00,40.1,27.3,30.27,ESE,111,11.0,40.0,60,0.00,,,0.00,0.0,meteohub,2013-01-03 05:00:00,
2013-01-02 21:01:00,40.1,27.3,30.26,ESE,105,14.0,34.0,60,0.00,,,0.00,0.0,meteohub,2013-01-03 05:01:00,
2013-01-02 21:04:00,39.7,27.3,30.26,ESE,109,15.0,34.0,61,0.00,,,0.00,0.0,meteohub,2013-01-03 05:04:00,
2013-01-02 21:09:00,39.6,27.7,30.27,SE,124,16.0,31.0,62,0.00,,,0.00,0.0,meteohub,2013-01-03 05:09:00,
2013-01-02 21:11:00,39.4,27.5,30.26,ESE,103,12.0,29.0,62,0.00,,,0.00,0.0,meteohub,2013-01-03 05:11:00,
2013-01-02 21:16:00,39.7,27.0,30.26,East,94,17.0,29.0,60,0.00,,,0.00,0.0,meteohub,2013-01-03 05:16:00,
2013-01-02 21:21:00,39.9,27.1,30.27,NE,55,13.0,35.0,60,0.00,,,0.00,0.0,meteohub,2013-01-03 05:21:00,
2013-01-02 21:26:00,39.6,27.1,30.27,ESE,120,8.0,35.0,61,0.00,,,0.00,0.0,meteohub,2013-01-03 05:26:00,
2013-01-02 21:31:00,39.6,27.1,30.27,ESE,111,23.0,35.0,61,0.00,,,0.00,0.0,meteohub,2013-01-03 05:31:00,
2013-01-02 21:36:00,39.7,27.0,30.27,ESE,121,11.0,33.0,60,0.00,,,0.00,0.0,meteohub,2013-01-03 05:36:00,
2013-01-02 21:41:00,40.1,27.3,30.26,East,99,20.0,31.0,60,0.00,,,0.00,0.0,meteohub,2013-01-03 05:41:00,
2013-01-02 21:46:00,39.7,27.0,30.27,ESE,105,19.0,31.0,60,0.00,,,0.00,0.0,meteohub,2013-01-03 05:46:00,
2013-01-02 21:51:00,39.6,27.1,30.27,ESE,123,12.0,36.0,61,0.00,,,0.00,0.0,meteohub,2013-01-03 05:51:00,
2013-01-02 21:56:00,39.6,27.1,30.26,East,101,14.0,36.0,61,0.00,,,0.00,0.0,meteohub,2013-01-03 05:56:00,
2013-01-02 22:02:00,39.7,27.0,30.25,East,94,22.0,36.0,60,0.00,,,0.00,0.0,meteohub,2013-01-03 06:02:00,
2013-01-02 22:07:00,39.6,28.0,30.26,ESE,113,26.0,32.0,63,0.00,,,0.00,0.0,meteohub,2013-01-03 06:07:00,
2013-01-02 22:12:00,39.6,27.1,30.26,ESE,115,24.0,32.0,61,0.00,,,0.00,0.0,meteohub,2013-01-03 06:12:00,
2013-01-02 22:17:00,39.6,27.1,30.26,East,100,12.0,32.0,61,0.00,,,0.00,0.0,meteohub,2013-01-03 06:17:00,
2013-01-02 22:22:00,39.6,27.7,30.26,SE,131,19.0,28.0,62,0.00,,,0.00,0.0,meteohub,2013-01-03 06:22:00,
2013-01-02 22:27:00,39.4,27.5,30.27,SE,124,18.0,28.0,62,0.00,,,0.00,0.0,meteohub,2013-01-03 06:27:00,
2013-01-02 22:32:00,39.6,27.1,30.27,ESE,117,11.0,27.0,61,0.00,,,0.00,0.0,meteohub,2013-01-03 06:32:00,
2013-01-02 22:37:00,39.6,27.7,30.27,ESE,111,11.0,32.0,62,0.00,,,0.00,0.0,meteohub,2013-01-03 06:37:00,
2013-01-02 22:42:00,39.6,27.1,30.26,ESE,104,24.0,32.0,61,0.00,,,0.00,0.0,meteohub,2013-01-03 06:42:00,
2013-01-02 22:47:00,39.4,27.9,30.27,South,180,5.0,32.0,63,0.00,,,0.00,0.0,meteohub,2013-01-03 06:47:00,
2013-01-02 22:52:00,39.0,27.5,30.26,ESE,112,19.0,31.0,63,0.00,,,0.00,0.0,meteohub,2013-01-03 06:52:00,
2013-01-02 22:57:00,38.8,27.7,30.27,ENE,70,10.0,28.0,64,0.00,,,0.00,0.0,meteohub,2013-01-03 06:57:00,
2013-01-02 23:02:00,38.8,27.3,30.27,East,98,13.0,33.0,63,0.00,,,0.00,0.0,meteohub,2013-01-03 07:02:00,
2013-01-02 23:07:00,39.2,27.3,30.26,SE,128,22.0,33.0,62,0.00,,,0.00,0.0,meteohub,2013-01-03 07:07:00,
2013-01-02 23:12:00,39.4,27.9,30.27,SE,124,14.0,33.0,63,0.00,,,0.00,0.0,meteohub,2013-01-03 07:12:00,
2013-01-02 23:17:00,39.4,27.5,30.27,SE,131,16.0,31.0,62,0.00,,,0.00,0.0,meteohub,2013-01-03 07:17:00,
2013-01-02 23:22:00,39.0,27.9,30.26,East,84,31.0,31.0,64,0.00,,,0.00,0.0,meteohub,2013-01-03 07:22:00,
2013-01-02 23:27:00,38.7,27.9,30.26,SE,128,23.0,31.0,65,0.00,,,0.00,0.0,meteohub,2013-01-03 07:27:00,
2013-01-02 23:32:00,38.7,27.5,30.27,ESE,117,10.0,31.0,64,0.00,,,0.00,0.0,meteohub,2013-01-03 07:32:00,
2013-01-02 23:37:00,38.7,27.9,30.27,ESE,113,19.0,31.0,65,0.00,,,0.00,0.0,meteohub,2013-01-03 07:37:00,
2013-01-02 23:42:00,38.7,27.9,30.27,SE,125,10.0,30.0,65,0.00,,,0.00,0.0,meteohub,2013-01-03 07:42:00,
2013-01-02 23:47:00,38.7,27.5,30.25,SW,226,6.0,30.0,64,0.00,,,0.00,0.0,meteohub,2013-01-03 07:47:00,
2013-01-02 23:52:00,38.5,27.7,30.25,East,101,11.0,30.0,65,0.00,,,0.00,0.0,meteohub,2013-01-03 07:52:00,
2013-01-02 23:58:00,38.1,27.9,30.27,SE,125,19.0,30.0,66,0.00,,,0.00,0.0,meteohub,2013-01-03 07:58:00,